createdAt,value
2022-12-13T00:01:55.745Z,17.77
2022-12-13T00:04:24.412Z,17.67
2022-12-13T00:06:54.027Z,16.00
2022-12-13T00:09:22.557Z,17.00
2022-12-13T00:11:50.364Z,15.93
2022-12-13T00:14:18.181Z,18.57
2022-12-13T00:16:47.713Z,18.00
2022-12-13T00:19:16.171Z,19.00
2022-12-13T00:21:43.886Z,17.20
2022-12-13T00:24:11.496Z,19.97
2022-12-13T00:26:38.839Z,19.10
2022-12-13T00:29:07.534Z,18.33
2022-12-13T00:34:23.112Z,19.37
2022-12-13T00:36:50.545Z,17.50
2022-12-13T00:39:19.279Z,18.10
2022-12-13T00:41:47.384Z,16.10
2022-12-13T00:44:15.198Z,16.33
2022-12-13T00:46:42.623Z,15.67
2022-12-13T00:49:11.619Z,16.47
2022-12-13T00:51:39.750Z,17.37
2022-12-13T00:54:07.171Z,16.13
2022-12-13T00:56:36.689Z,16.80
2022-12-13T00:59:04.473Z,16.07
2022-12-13T01:01:33.975Z,15.30
2022-12-13T01:04:03.422Z,17.27
2022-12-13T01:06:37.533Z,14.00
2022-12-13T01:09:07.416Z,20.13
2022-12-13T01:11:34.826Z,16.87
2022-12-13T01:14:03.285Z,15.03
2022-12-13T01:16:30.749Z,14.67
2022-12-13T01:18:58.647Z,14.00
2022-12-13T01:21:26.108Z,15.47
2022-12-13T01:23:53.507Z,15.97
2022-12-13T01:26:21.825Z,13.87
2022-12-13T01:28:49.836Z,16.60
2022-12-13T01:31:20.027Z,14.70
2022-12-13T01:33:48.093Z,14.87
2022-12-13T01:36:18.369Z,15.57
2022-12-13T01:38:45.761Z,14.10
2022-12-13T01:41:27.031Z,15.90
2022-12-13T01:43:57.948Z,14.77
2022-12-13T01:46:25.542Z,15.97
2022-12-13T01:49:20.933Z,13.83
2022-12-13T01:52:03.030Z,15.03
2022-12-13T01:54:34.610Z,15.17
2022-12-13T01:57:06.607Z,14.53
2022-12-13T01:59:38.256Z,17.00
2022-12-13T02:02:10.124Z,15.63
2022-12-13T02:04:50.773Z,17.00
2022-12-13T02:07:23.091Z,16.53
2022-12-13T02:09:57.750Z,15.67
2022-12-13T02:12:29.926Z,14.90
2022-12-13T02:15:08.060Z,15.67
2022-12-13T02:17:56.608Z,12.20
2022-12-13T02:20:58.552Z,16.60
2022-12-13T02:23:37.938Z,14.37
2022-12-13T02:26:31.362Z,14.60
2022-12-13T02:29:30.877Z,15.07
2022-12-13T02:32:13.805Z,16.10
2022-12-13T02:34:54.620Z,15.70
2022-12-13T02:37:32.322Z,14.60
2022-12-13T02:40:32.540Z,16.73
2022-12-13T02:43:14.347Z,15.70
2022-12-13T02:45:59.607Z,15.27
2022-12-13T02:48:34.286Z,16.23
2022-12-13T02:51:06.440Z,14.97
2022-12-13T02:53:34.968Z,14.73
2022-12-13T02:56:02.369Z,13.43
2022-12-13T02:58:37.673Z,13.57
2022-12-13T03:01:28.847Z,13.97
2022-12-13T03:04:15.979Z,14.87
2022-12-13T03:07:01.382Z,15.07
2022-12-13T03:09:55.502Z,16.30
2022-12-13T03:12:49.718Z,15.30
2022-12-13T03:15:17.618Z,15.53
2022-12-13T03:18:00.410Z,14.33
2022-12-13T03:20:29.485Z,14.83
2022-12-13T03:22:57.709Z,14.80
2022-12-13T03:25:31.703Z,14.57
2022-12-13T03:28:02.264Z,15.27
2022-12-13T03:30:33.803Z,14.20
2022-12-13T03:33:01.787Z,13.97
2022-12-13T03:35:34.351Z,14.97
2022-12-13T03:38:22.313Z,14.57
2022-12-13T03:40:57.171Z,14.83
2022-12-13T03:43:25.088Z,16.63
2022-12-13T03:45:53.330Z,16.53
2022-12-13T03:48:22.183Z,14.53
2022-12-13T03:50:52.826Z,15.90
2022-12-13T03:53:22.177Z,15.97
2022-12-13T03:56:01.761Z,14.03
2022-12-13T03:58:35.263Z,15.27
2022-12-13T04:01:10.510Z,15.87
2022-12-13T04:03:39.505Z,15.20
2022-12-13T04:06:07.790Z,13.77
2022-12-13T04:08:36.590Z,14.33
2022-12-13T04:11:24.800Z,14.87
2022-12-13T04:13:53.824Z,13.67
2022-12-13T04:16:22.138Z,14.87
2022-12-13T04:18:49.868Z,16.33
2022-12-13T04:21:17.319Z,13.63
2022-12-13T04:23:44.819Z,15.07
2022-12-13T04:26:12.273Z,16.77
2022-12-13T04:28:39.614Z,18.30
2022-12-13T04:31:07.093Z,18.47
2022-12-13T04:33:35.171Z,20.77
2022-12-13T04:36:02.864Z,20.23
2022-12-13T04:38:30.193Z,19.63
2022-12-13T04:41:17.056Z,17.67
2022-12-13T04:43:45.279Z,15.60
2022-12-13T04:46:12.725Z,16.77
2022-12-13T04:48:40.106Z,14.53
2022-12-13T04:51:07.529Z,14.23
2022-12-13T04:53:34.852Z,15.13
2022-12-13T04:56:04.499Z,13.53
2022-12-13T04:58:32.735Z,15.20
2022-12-13T05:01:00.292Z,15.30
2022-12-13T05:03:28.777Z,14.57
2022-12-13T05:05:56.952Z,15.13
2022-12-13T05:08:24.419Z,15.50
2022-12-13T05:10:51.847Z,14.27
2022-12-13T05:13:19.184Z,12.80
2022-12-13T05:15:55.309Z,14.70
2022-12-13T05:18:22.941Z,14.23
2022-12-13T05:20:53.291Z,17.37
2022-12-13T05:23:22.703Z,16.80
2022-12-13T05:25:51.552Z,14.73
2022-12-13T05:28:27.739Z,14.70
2022-12-13T05:30:59.199Z,15.57
2022-12-13T05:33:27.030Z,15.73
2022-12-13T05:35:59.396Z,14.47
2022-12-13T05:38:30.059Z,14.70
2022-12-13T05:40:58.151Z,14.80
2022-12-13T05:43:43.215Z,15.17
2022-12-13T05:46:15.108Z,15.03
2022-12-13T05:48:42.639Z,14.60
2022-12-13T05:51:11.875Z,16.03
2022-12-13T05:53:41.094Z,16.60
2022-12-13T05:56:09.990Z,17.17
2022-12-13T05:58:38.749Z,19.70
2022-12-13T06:01:17.032Z,20.83
2022-12-13T06:03:44.527Z,19.20
2022-12-13T06:06:13.386Z,17.40
2022-12-13T06:08:40.767Z,16.03
2022-12-13T06:11:09.976Z,14.43
2022-12-13T06:13:42.676Z,15.03
2022-12-13T06:16:23.428Z,15.10
2022-12-13T06:18:59.357Z,16.20
2022-12-13T06:21:43.960Z,16.70
2022-12-13T06:24:15.326Z,18.10
2022-12-13T06:26:45.364Z,17.13
2022-12-13T06:29:24.017Z,20.17
2022-12-13T06:31:55.026Z,16.13
2022-12-13T06:34:35.839Z,17.87
2022-12-13T06:37:07.046Z,16.43
2022-12-13T06:39:35.212Z,17.97
2022-12-13T06:42:07.575Z,16.27
2022-12-13T06:44:36.215Z,17.23
2022-12-13T06:47:10.204Z,18.80
2022-12-13T06:49:42.047Z,18.13
2022-12-13T06:52:14.277Z,18.77
2022-12-13T06:54:42.901Z,18.70
2022-12-13T06:57:13.518Z,17.40
2022-12-13T06:59:41.675Z,19.73
2022-12-13T07:02:24.816Z,20.93
2022-12-13T07:04:53.604Z,17.40
2022-12-13T07:07:21.145Z,16.73
2022-12-13T07:09:48.513Z,17.70
2022-12-13T07:12:16.145Z,18.93
2022-12-13T07:14:43.835Z,16.10
2022-12-13T07:17:11.218Z,19.07
2022-12-13T07:19:38.722Z,16.67
2022-12-13T07:22:06.307Z,16.57
2022-12-13T07:24:36.549Z,16.60
2022-12-13T07:27:05.121Z,17.87
2022-12-13T07:29:32.543Z,19.57
2022-12-13T07:32:01.745Z,20.80
2022-12-13T07:34:30.660Z,23.80
2022-12-13T07:36:58.294Z,28.90
2022-12-13T07:39:26.405Z,26.90
2022-12-13T07:41:55.865Z,22.07
2022-12-13T07:44:24.120Z,22.57
2022-12-13T07:46:51.638Z,21.37
2022-12-13T07:49:19.414Z,21.43
2022-12-13T07:51:48.077Z,25.43
2022-12-13T07:54:15.861Z,32.50
2022-12-13T07:56:43.282Z,27.33
2022-12-13T07:59:10.987Z,28.93
2022-12-13T08:01:38.690Z,51.93
2022-12-13T08:04:08.761Z,67.60
2022-12-13T08:06:38.029Z,59.33
2022-12-13T08:09:06.036Z,53.17
2022-12-13T08:11:33.790Z,51.07
2022-12-13T08:14:01.218Z,40.70
2022-12-13T08:16:30.565Z,26.23
2022-12-13T08:19:03.352Z,30.27
2022-12-13T08:21:58.437Z,29.87
2022-12-13T08:24:28.229Z,29.57
2022-12-13T08:27:01.120Z,31.67
2022-12-13T08:29:35.921Z,47.27
2022-12-13T08:32:09.761Z,29.23
2022-12-13T08:34:37.578Z,34.73
2022-12-13T08:37:05.777Z,32.63
2022-12-13T08:39:36.282Z,27.77
2022-12-13T08:42:19.542Z,34.37
2022-12-13T08:44:50.365Z,28.47
2022-12-13T08:47:23.732Z,61.43
2022-12-13T08:50:02.793Z,42.63
2022-12-13T08:52:40.069Z,25.80
2022-12-13T08:55:14.108Z,21.67
2022-12-13T08:57:43.024Z,20.77
2022-12-13T09:00:14.141Z,20.20
2022-12-13T09:02:41.667Z,20.17
2022-12-13T09:05:10.487Z,19.70
2022-12-13T09:07:41.033Z,19.10
2022-12-13T09:10:26.771Z,21.37
2022-12-13T09:13:01.840Z,20.37
2022-12-13T09:15:33.889Z,21.77
2022-12-13T09:18:05.139Z,23.37
2022-12-13T09:20:40.848Z,20.40
2022-12-13T09:23:14.124Z,23.83
2022-12-13T09:26:05.984Z,21.13
2022-12-13T09:28:35.480Z,22.13
2022-12-13T09:31:07.641Z,20.93
2022-12-13T09:33:41.187Z,21.23
2022-12-13T09:36:12.850Z,20.47
2022-12-13T09:38:40.646Z,20.47
2022-12-13T09:41:28.749Z,21.30
2022-12-13T09:44:06.059Z,18.40
2022-12-13T09:46:44.785Z,21.97
2022-12-13T09:49:35.118Z,21.77
2022-12-13T09:52:11.750Z,22.03
2022-12-13T09:54:50.703Z,18.17
2022-12-13T09:57:32.241Z,17.00
2022-12-13T10:00:11.824Z,12.77
2022-12-13T10:02:51.485Z,14.53
2022-12-13T10:05:34.617Z,12.37
2022-12-13T10:08:16.647Z,10.40
2022-12-13T10:10:45.077Z,10.70
2022-12-13T10:13:21.736Z,11.97
2022-12-13T10:15:54.865Z,11.03
2022-12-13T10:18:37.618Z,11.07
2022-12-13T10:21:28.501Z,9.30
2022-12-13T10:24:31.532Z,9.67
2022-12-13T10:27:13.635Z,10.57
2022-12-13T10:30:03.009Z,9.90
2022-12-13T10:32:37.921Z,9.20
2022-12-13T10:35:38.519Z,11.10
2022-12-13T10:38:08.610Z,10.40
2022-12-13T10:40:38.883Z,7.87
2022-12-13T10:43:21.807Z,7.63
2022-12-13T10:46:02.037Z,10.97
2022-12-13T10:48:38.820Z,10.17
2022-12-13T10:51:10.336Z,11.17
2022-12-13T10:53:47.120Z,9.87
2022-12-13T10:56:22.471Z,10.50
2022-12-13T10:59:13.332Z,11.03
2022-12-13T11:01:42.696Z,9.97
2022-12-13T11:04:29.213Z,8.93
2022-12-13T11:06:59.796Z,10.93
2022-12-13T11:09:38.636Z,9.87
2022-12-13T11:12:28.077Z,9.10
2022-12-13T11:15:02.798Z,9.73
2022-12-13T11:17:33.497Z,8.80
2022-12-13T11:20:21.153Z,9.87
2022-12-13T11:22:50.799Z,8.90
2022-12-13T11:25:28.602Z,7.63
2022-12-13T11:28:27.635Z,8.97
2022-12-13T11:31:33.707Z,7.80
2022-12-13T11:34:37.981Z,8.60
2022-12-13T11:37:21.370Z,9.37
2022-12-13T11:40:01.125Z,8.77
2022-12-13T11:42:35.379Z,10.10
2022-12-13T11:45:23.364Z,9.17
2022-12-13T11:48:07.195Z,7.70
2022-12-13T11:50:39.174Z,8.20
2022-12-13T11:53:40.920Z,7.80
2022-12-13T11:56:15.230Z,9.30
2022-12-13T11:59:02.885Z,8.77
2022-12-13T12:02:16.828Z,9.63
2022-12-13T12:05:00.600Z,9.60
2022-12-13T12:07:58.351Z,7.20
2022-12-13T12:10:49.332Z,8.47
2022-12-13T12:13:23.537Z,8.63
2022-12-13T12:16:15.628Z,8.67
2022-12-13T12:18:43.380Z,8.03
2022-12-13T12:22:13.264Z,8.20
2022-12-13T12:24:47.056Z,8.83
2022-12-13T12:27:44.805Z,7.90
2022-12-13T12:30:24.308Z,8.47
2022-12-13T12:32:54.965Z,7.47
2022-12-13T12:35:22.345Z,9.20
2022-12-13T12:38:07.904Z,8.30
2022-12-13T12:43:47.670Z,10.17
2022-12-13T12:46:20.991Z,8.77
2022-12-13T12:49:10.267Z,10.40
2022-12-13T12:52:05.385Z,10.17
2022-12-13T12:55:20.733Z,11.13
2022-12-13T12:58:07.700Z,10.37
2022-12-13T13:00:51.518Z,9.90
2022-12-13T13:03:27.738Z,10.80
2022-12-13T13:06:10.254Z,9.63
2022-12-13T13:08:43.476Z,7.27
2022-12-13T13:11:24.687Z,8.53
2022-12-13T13:14:01.503Z,8.30
2022-12-13T13:16:38.528Z,9.03
2022-12-13T13:19:12.666Z,8.53
2022-12-13T13:21:55.279Z,9.70
2022-12-13T13:24:31.139Z,9.27
2022-12-13T13:27:10.546Z,9.80
2022-12-13T13:29:43.691Z,9.13
2022-12-13T13:32:11.482Z,8.60
2022-12-13T13:34:46.304Z,8.90
2022-12-13T13:37:22.783Z,8.70
2022-12-13T13:40:01.735Z,7.87
2022-12-13T13:42:30.187Z,9.07
2022-12-13T13:45:26.979Z,9.27
2022-12-13T13:48:00.551Z,9.60
2022-12-13T13:50:46.657Z,9.13
2022-12-13T13:53:45.597Z,10.53
2022-12-13T13:56:40.552Z,9.63
2022-12-13T13:59:45.851Z,10.10
2022-12-13T14:02:33.067Z,13.20
2022-12-13T14:05:18.521Z,9.90
2022-12-13T14:07:54.955Z,10.33
2022-12-13T14:10:49.573Z,10.50
2022-12-13T14:14:02.392Z,10.10
2022-12-13T14:16:50.713Z,10.33
2022-12-13T14:19:48.741Z,9.13
2022-12-13T14:22:24.738Z,11.50
2022-12-13T14:25:30.084Z,12.43
2022-12-13T14:28:11.338Z,9.43
2022-12-13T14:30:43.339Z,10.80
2022-12-13T14:33:26.386Z,9.07
2022-12-13T14:35:58.102Z,10.73
2022-12-13T14:38:28.488Z,11.13
2022-12-13T14:40:59.969Z,9.40
2022-12-13T14:43:35.455Z,10.93
2022-12-13T14:46:05.355Z,11.63
2022-12-13T14:48:53.689Z,14.53
2022-12-13T14:51:31.457Z,10.70
2022-12-13T14:53:59.872Z,11.13
2022-12-13T14:56:29.293Z,11.83
2022-12-13T14:59:02.471Z,11.37
2022-12-13T15:01:35.861Z,11.20
2022-12-13T15:04:37.843Z,12.07
2022-12-13T15:07:29.040Z,10.37
2022-12-13T15:10:02.645Z,11.57
2022-12-13T15:12:32.162Z,12.43
2022-12-13T15:15:05.768Z,12.20
2022-12-13T15:17:36.987Z,10.70
2022-12-13T15:20:27.719Z,12.43
2022-12-13T15:23:27.334Z,11.67
2022-12-13T15:26:28.365Z,11.23
2022-12-13T15:29:00.641Z,11.70
2022-12-13T15:31:28.980Z,12.00
2022-12-13T15:34:30.376Z,12.40
2022-12-13T15:37:06.742Z,10.90
2022-12-13T15:39:40.057Z,11.27
2022-12-13T15:42:15.924Z,12.43
2022-12-13T15:44:56.215Z,11.97
2022-12-13T15:47:27.832Z,10.60
2022-12-13T15:50:05.577Z,10.47
2022-12-13T15:52:37.298Z,14.90
2022-12-13T15:55:10.835Z,12.20
2022-12-13T15:57:55.850Z,15.27
2022-12-13T16:00:30.310Z,12.43
2022-12-13T16:03:15.019Z,12.30
2022-12-13T16:05:49.435Z,12.13
2022-12-13T16:08:37.343Z,11.67
2022-12-13T16:11:06.920Z,12.13
2022-12-13T16:13:37.172Z,13.30
2022-12-13T16:16:27.132Z,12.77
2022-12-13T16:19:00.029Z,14.07
2022-12-13T16:21:28.727Z,14.97
2022-12-13T16:23:56.465Z,13.73
2022-12-13T16:26:27.303Z,14.33
2022-12-13T16:28:58.653Z,13.50
2022-12-13T16:31:28.383Z,15.63
2022-12-13T16:33:55.834Z,14.63
2022-12-13T16:36:23.443Z,14.50
2022-12-13T16:38:51.502Z,13.77
2022-12-13T16:41:19.188Z,14.30
2022-12-13T16:44:08.323Z,15.40
2022-12-13T16:47:13.812Z,12.73
2022-12-13T16:49:28.340Z,14.43
2022-12-13T16:51:56.687Z,13.83
2022-12-13T16:54:30.719Z,13.53
2022-12-13T16:56:58.282Z,15.30
2022-12-13T16:59:27.632Z,14.93
2022-12-13T17:01:57.843Z,16.83
2022-12-13T17:04:28.234Z,16.50
2022-12-13T17:06:56.752Z,15.57
2022-12-13T17:09:25.787Z,16.20
2022-12-13T17:11:53.912Z,15.50
2022-12-13T17:14:21.789Z,15.93
2022-12-13T17:16:50.832Z,16.37
2022-12-13T17:19:18.968Z,15.87
2022-12-13T17:21:46.759Z,15.47
2022-12-13T17:24:16.728Z,15.30
2022-12-13T17:26:54.705Z,15.70
2022-12-13T17:29:25.909Z,16.10
2022-12-13T17:31:55.088Z,16.83
2022-12-13T17:34:27.471Z,15.47
2022-12-13T17:36:58.585Z,16.47
2022-12-13T17:39:28.892Z,19.07
2022-12-13T17:41:59.186Z,17.27
2022-12-13T17:44:33.391Z,17.70
2022-12-13T17:47:04.476Z,16.73
2022-12-13T17:49:32.449Z,15.57
2022-12-13T17:52:02.921Z,16.87
2022-12-13T17:54:34.027Z,17.80
2022-12-13T17:59:45.913Z,19.00
2022-12-13T18:02:21.191Z,16.37
2022-12-13T18:05:00.298Z,17.03
2022-12-13T18:07:31.601Z,17.40
2022-12-13T18:10:02.188Z,18.13
2022-12-13T18:12:35.261Z,17.20
2022-12-13T18:15:08.627Z,18.63
2022-12-13T18:18:10.032Z,19.67
2022-12-13T18:23:20.410Z,17.23
2022-12-13T18:25:52.788Z,18.27
2022-12-13T18:28:20.839Z,19.97
2022-12-13T18:30:54.448Z,20.43
2022-12-13T18:33:29.485Z,19.33
2022-12-13T18:36:10.702Z,18.27
2022-12-13T18:38:47.410Z,17.37
2022-12-13T18:41:32.121Z,17.00
2022-12-13T18:44:09.978Z,17.73
2022-12-13T18:46:45.741Z,18.93
2022-12-13T18:49:19.207Z,19.90
2022-12-13T18:51:52.214Z,19.37
2022-12-13T18:54:23.096Z,16.10
2022-12-13T18:56:53.254Z,17.43
2022-12-13T19:02:08.150Z,18.33
2022-12-13T19:04:38.048Z,19.20
2022-12-13T19:10:01.918Z,21.00
2022-12-13T19:15:19.660Z,20.40
2022-12-13T19:17:55.121Z,19.90
2022-12-13T19:20:27.583Z,20.80
2022-12-13T19:23:00.242Z,18.93
2022-12-13T19:25:36.057Z,19.43
2022-12-13T19:28:17.615Z,20.27
2022-12-13T19:30:51.443Z,20.53
2022-12-13T19:33:28.622Z,19.43
2022-12-13T19:36:00.663Z,21.30
2022-12-13T19:38:33.352Z,20.33
2022-12-13T19:41:12.708Z,23.50
2022-12-13T19:46:49.778Z,21.70
2022-12-13T19:49:21.621Z,21.70
2022-12-13T19:51:52.324Z,20.10
2022-12-13T19:54:25.374Z,21.60
2022-12-13T19:56:55.132Z,21.30
2022-12-13T19:59:35.709Z,21.97
2022-12-13T20:02:08.737Z,20.27
2022-12-13T20:04:41.518Z,19.73
2022-12-13T20:07:16.885Z,20.63
2022-12-13T20:09:47.190Z,19.57
2022-12-13T20:12:18.912Z,20.50
2022-12-13T20:14:59.766Z,19.20
2022-12-13T20:17:30.521Z,20.73
2022-12-13T20:20:00.993Z,20.50
2022-12-13T20:22:33.505Z,19.40
2022-12-13T20:25:03.403Z,22.57
2022-12-13T20:27:35.181Z,19.57
2022-12-13T20:30:05.853Z,19.10
2022-12-13T20:35:18.840Z,23.10
2022-12-13T20:37:50.699Z,23.30
2022-12-13T20:40:24.487Z,21.10
2022-12-13T20:42:56.055Z,20.20
2022-12-13T20:45:27.118Z,19.93
2022-12-13T20:48:02.790Z,20.90
2022-12-13T20:50:34.504Z,19.63
2022-12-13T20:53:06.267Z,20.00
2022-12-13T20:55:36.583Z,19.17
2022-12-13T21:00:55.928Z,21.07
2022-12-13T21:06:13.324Z,19.23
2022-12-13T21:08:53.275Z,21.60
2022-12-13T21:11:38.647Z,19.67
2022-12-13T21:14:23.144Z,20.07
2022-12-13T21:17:00.446Z,18.67
2022-12-13T21:19:39.318Z,20.43
2022-12-13T21:22:16.355Z,20.93
2022-12-13T21:24:46.905Z,19.77
2022-12-13T21:27:19.330Z,20.27
2022-12-13T21:29:50.285Z,16.80
2022-12-13T21:32:19.506Z,17.33
2022-12-13T21:34:51.007Z,18.57
2022-12-13T21:37:19.820Z,19.27
2022-12-13T21:39:50.525Z,21.47
2022-12-13T21:42:19.288Z,20.60
2022-12-13T21:44:50.833Z,21.97
2022-12-13T21:47:19.746Z,20.93
2022-12-13T21:49:48.563Z,19.73
2022-12-13T21:52:20.177Z,21.53
2022-12-13T21:57:49.620Z,21.00
2022-12-13T22:00:17.499Z,20.37
2022-12-13T22:02:46.916Z,18.37
2022-12-13T22:05:19.700Z,20.23
2022-12-13T22:07:51.163Z,19.20
2022-12-13T22:10:23.295Z,19.27
2022-12-13T22:15:35.234Z,20.30
2022-12-13T22:18:03.199Z,20.20
2022-12-13T22:23:17.728Z,18.87
2022-12-13T22:26:01.676Z,19.27
2022-12-13T22:28:33.524Z,20.47
2022-12-13T22:31:02.155Z,21.13
2022-12-13T22:33:32.457Z,19.30
2022-12-13T22:36:04.367Z,21.07
2022-12-13T22:38:35.617Z,20.67
2022-12-13T22:41:05.326Z,20.97
2022-12-13T22:43:38.109Z,21.57
2022-12-13T22:46:24.033Z,20.97
2022-12-13T22:48:53.298Z,21.33
2022-12-13T22:51:25.108Z,22.00
2022-12-13T22:53:53.711Z,20.63
2022-12-13T22:56:23.062Z,24.13
2022-12-13T22:58:57.401Z,21.80
2022-12-13T23:01:29.270Z,22.57
2022-12-13T23:04:00.980Z,23.70
2022-12-13T23:06:39.793Z,23.07
2022-12-13T23:09:12.339Z,24.63
2022-12-13T23:11:59.583Z,24.97
2022-12-13T23:14:32.744Z,25.83
2022-12-13T23:17:02.951Z,23.57
2022-12-13T23:19:49.473Z,22.80
2022-12-13T23:22:23.551Z,28.17
2022-12-13T23:24:54.408Z,23.23
2022-12-13T23:27:23.957Z,25.00
2022-12-13T23:32:45.082Z,24.10
2022-12-13T23:37:56.056Z,23.20
2022-12-13T23:40:24.531Z,24.83
2022-12-13T23:42:52.795Z,24.60
2022-12-13T23:45:22.778Z,24.50
2022-12-13T23:47:51.359Z,25.40
2022-12-13T23:50:22.321Z,25.37
2022-12-13T23:52:53.197Z,27.10
2022-12-13T23:55:22.085Z,25.57
2022-12-13T23:57:50.320Z,24.93
